createdAt,value
2019-04-25T00:00:11.690Z,99.90
2019-04-25T00:02:42.635Z,99.90
2019-04-25T00:05:12.705Z,1.00
2019-04-25T00:07:42.505Z,1.00
2019-04-25T00:10:13.598Z,1.00
2019-04-25T00:12:43.214Z,1.00
2019-04-25T00:15:12.328Z,1.00
2019-04-25T00:17:42.317Z,1.00
2019-04-25T00:20:11.986Z,1.00
2019-04-25T00:22:42.862Z,1.00
2019-04-25T00:25:25.622Z,1.00
2019-04-25T00:27:54.083Z,99.90
2019-04-25T00:30:24.203Z,99.90
2019-04-25T00:32:53.648Z,99.90
2019-04-25T00:35:22.148Z,99.90
2019-04-25T00:37:52.511Z,1.00
2019-04-25T00:40:21.959Z,99.90
2019-04-25T00:42:53.427Z,99.90
2019-04-25T00:45:22.288Z,99.90
2019-04-25T00:47:51.882Z,1.00
2019-04-25T00:50:21.949Z,99.90
2019-04-25T00:52:52.209Z,99.90
2019-04-25T00:55:28.632Z,1.00
2019-04-25T00:57:53.677Z,1.00
2019-04-25T01:00:23.928Z,1.00
2019-04-25T01:02:54.642Z,1.00
2019-04-25T01:05:23.141Z,1.00
2019-04-25T01:07:53.156Z,1.00
2019-04-25T01:10:23.173Z,1.00
2019-04-25T01:12:52.341Z,1.00
2019-04-25T01:15:22.708Z,1.00
2019-04-25T01:17:52.350Z,1.00
2019-04-25T01:20:21.927Z,1.00
2019-04-25T01:22:51.371Z,1.00
2019-04-25T01:25:19.945Z,1.00
2019-04-25T01:27:48.429Z,1.00
2019-04-25T01:30:18.814Z,1.00
2019-04-25T01:32:48.308Z,1.00
2019-04-25T01:35:21.372Z,1.00
2019-04-25T01:37:54.879Z,1.00
2019-04-25T01:40:37.914Z,1.00
2019-04-25T01:43:08.064Z,1.00
2019-04-25T01:45:37.121Z,1.00
2019-04-25T01:48:05.615Z,1.00
2019-04-25T01:50:35.248Z,1.00
2019-04-25T01:53:03.890Z,1.00
2019-04-25T01:55:33.568Z,1.00
2019-04-25T01:58:03.773Z,1.00
2019-04-25T02:00:39.883Z,1.00
2019-04-25T02:03:08.702Z,1.00
2019-04-25T02:05:37.434Z,1.00
2019-04-25T02:08:07.083Z,1.00
2019-04-25T02:10:35.642Z,1.00
2019-04-25T02:13:11.735Z,1.00
2019-04-25T02:15:40.298Z,1.00
2019-04-25T02:18:08.781Z,1.00
2019-04-25T02:20:37.359Z,1.00
2019-04-25T02:23:05.955Z,1.00
2019-04-25T02:25:34.690Z,1.00
2019-04-25T02:28:05.542Z,1.00
2019-04-25T02:30:35.580Z,1.00
2019-04-25T02:33:08.808Z,1.00
2019-04-25T02:35:35.073Z,1.00
2019-04-25T02:38:08.364Z,1.00
2019-04-25T02:40:34.502Z,10.50
2019-04-25T02:43:07.940Z,3.80
2019-04-25T02:45:38.296Z,3.00
2019-04-25T02:48:09.217Z,6.80
2019-04-25T02:50:56.417Z,2.40
2019-04-25T02:53:29.405Z,3.20
2019-04-25T02:55:58.222Z,1.10
2019-04-25T02:58:27.266Z,1.00
2019-04-25T03:01:07.467Z,1.00
2019-04-25T03:03:27.684Z,3.90
2019-04-25T03:05:57.472Z,6.50
2019-04-25T03:08:26.775Z,6.70
2019-04-25T03:10:58.214Z,11.10
2019-04-25T03:13:26.410Z,19.20
2019-04-25T03:15:55.861Z,22.80
2019-04-25T03:18:26.325Z,26.60
2019-04-25T03:20:56.754Z,24.00
2019-04-25T03:23:34.877Z,24.80
2019-04-25T03:26:04.759Z,24.40
2019-04-25T03:28:34.462Z,28.30
2019-04-25T03:31:08.553Z,27.90
2019-04-25T03:33:37.764Z,19.80
2019-04-25T03:36:06.614Z,11.20
2019-04-25T03:38:36.100Z,10.60
2019-04-25T03:41:06.173Z,9.60
2019-04-25T03:43:35.565Z,9.20
2019-04-25T03:46:05.877Z,1.00
2019-04-25T03:48:36.819Z,1.00
2019-04-25T03:51:06.667Z,1.00
2019-04-25T03:53:35.577Z,1.00
2019-04-25T03:56:05.987Z,1.00
2019-04-25T03:58:34.842Z,1.00
2019-04-25T04:01:07.000Z,1.00
2019-04-25T04:03:34.777Z,1.00
2019-04-25T04:06:05.918Z,1.00
2019-04-25T04:08:35.644Z,1.00
2019-04-25T04:11:06.431Z,1.00
2019-04-25T04:13:35.085Z,2.30
2019-04-25T04:16:05.160Z,5.10
2019-04-25T04:18:35.708Z,7.70
2019-04-25T04:21:13.578Z,11.00
2019-04-25T04:23:50.083Z,12.00
2019-04-25T04:26:18.929Z,14.10
2019-04-25T04:28:47.696Z,4.40
2019-04-25T04:31:16.631Z,1.00
2019-04-25T04:33:45.429Z,1.00
2019-04-25T04:36:15.008Z,1.00
2019-04-25T04:38:44.667Z,1.00
2019-04-25T04:41:14.225Z,1.00
2019-04-25T04:43:44.155Z,1.00
2019-04-25T04:46:14.158Z,1.00
2019-04-25T04:48:43.882Z,1.00
2019-04-25T04:51:14.528Z,1.00
2019-04-25T04:53:43.869Z,1.00
2019-04-25T04:56:15.107Z,1.00
2019-04-25T04:58:43.358Z,1.00
2019-04-25T05:01:13.025Z,1.00
2019-04-25T05:03:56.262Z,1.00
2019-04-25T05:06:26.684Z,1.00
2019-04-25T05:08:57.099Z,1.00
2019-04-25T05:11:25.952Z,1.00
2019-04-25T05:13:54.797Z,1.00
2019-04-25T05:16:23.901Z,1.00
2019-04-25T05:18:55.076Z,1.00
2019-04-25T05:21:22.996Z,1.00
2019-04-25T05:23:51.481Z,1.00
2019-04-25T05:26:19.944Z,99.90
2019-04-25T05:28:48.453Z,99.90
2019-04-25T05:31:21.573Z,99.90
2019-04-25T05:33:50.034Z,1.00
2019-04-25T05:36:19.583Z,1.00
2019-04-25T05:38:48.159Z,1.00
2019-04-25T05:41:33.736Z,99.90
2019-04-25T05:44:04.462Z,99.90
2019-04-25T05:46:34.153Z,99.90
2019-04-25T05:49:03.513Z,1.00
2019-04-25T05:51:33.841Z,1.00
2019-04-25T05:54:04.064Z,99.90
2019-04-25T05:56:33.772Z,99.90
2019-04-25T05:59:03.372Z,1.00
2019-04-25T06:01:34.460Z,1.00
2019-04-25T06:04:03.664Z,1.00
2019-04-25T06:06:36.474Z,99.90
2019-04-25T06:09:09.156Z,99.90
2019-04-25T06:11:43.682Z,99.90
2019-04-25T06:14:14.206Z,92.00
2019-04-25T06:16:43.669Z,1.00
2019-04-25T06:19:18.367Z,1.00
2019-04-25T06:21:44.103Z,1.00
2019-04-25T06:24:25.469Z,99.90
2019-04-25T06:26:55.117Z,99.90
2019-04-25T06:29:23.952Z,99.90
2019-04-25T06:32:04.214Z,99.90
2019-04-25T06:34:25.436Z,99.90
2019-04-25T06:36:53.765Z,99.90
2019-04-25T06:39:22.262Z,99.90
2019-04-25T06:41:50.862Z,99.90
2019-04-25T06:44:35.874Z,99.90
2019-04-25T06:47:06.091Z,99.90
2019-04-25T06:49:43.203Z,99.90
2019-04-25T06:52:11.927Z,79.00
2019-04-25T06:54:40.395Z,56.20
2019-04-25T06:57:08.916Z,17.70
2019-04-25T06:59:41.000Z,3.40
2019-04-25T07:02:07.665Z,1.00
2019-04-25T07:04:36.173Z,1.00
2019-04-25T07:07:12.024Z,1.00
2019-04-25T07:09:35.969Z,1.00
2019-04-25T07:12:04.699Z,1.00
2019-04-25T07:14:33.826Z,1.00
2019-04-25T07:17:04.336Z,1.00
2019-04-25T07:19:34.311Z,1.00
2019-04-25T07:22:03.941Z,1.00
2019-04-25T07:24:34.162Z,1.00
2019-04-25T07:27:23.616Z,1.00
2019-04-25T07:30:09.909Z,1.00
2019-04-25T07:32:40.046Z,1.00
2019-04-25T07:35:08.841Z,1.00
2019-04-25T07:37:41.528Z,1.00
2019-04-25T07:40:09.548Z,1.00
2019-04-25T07:42:38.096Z,1.00
2019-04-25T07:45:09.769Z,1.00
2019-04-25T07:47:38.450Z,1.00
2019-04-25T07:50:07.616Z,1.00
2019-04-25T07:52:36.168Z,1.00
2019-04-25T07:55:05.786Z,1.00
2019-04-25T07:57:34.886Z,1.00
2019-04-25T08:00:10.269Z,1.00
2019-04-25T08:02:39.558Z,1.00
2019-04-25T08:05:11.088Z,1.00
2019-04-25T08:07:39.926Z,1.00
2019-04-25T08:10:09.751Z,1.00
2019-04-25T08:12:39.405Z,1.00
2019-04-25T08:15:16.137Z,1.00
2019-04-25T08:17:57.996Z,1.00
2019-04-25T08:20:28.424Z,1.00
2019-04-25T08:22:59.911Z,1.00
2019-04-25T08:25:29.377Z,1.00
2019-04-25T08:27:57.961Z,1.00
2019-04-25T08:30:26.565Z,1.00
2019-04-25T08:32:55.116Z,1.00
2019-04-25T08:35:24.058Z,1.00
2019-04-25T08:37:53.759Z,1.00
2019-04-25T08:40:23.778Z,1.00
2019-04-25T08:42:53.750Z,1.00
2019-04-25T08:45:24.262Z,1.00
2019-04-25T08:47:53.794Z,1.00
2019-04-25T08:50:31.159Z,1.00
2019-04-25T08:52:56.829Z,1.00
2019-04-25T08:55:42.044Z,1.00
2019-04-25T08:58:14.885Z,1.00
2019-04-25T09:01:01.539Z,1.00
2019-04-25T09:03:35.516Z,1.00
2019-04-25T09:06:05.298Z,1.00
2019-04-25T09:08:36.034Z,1.00
2019-04-25T09:11:04.073Z,1.00
2019-04-25T09:13:35.383Z,1.00
2019-04-25T09:16:03.620Z,1.00
2019-04-25T09:18:34.709Z,1.00
2019-04-25T09:21:03.866Z,1.00
2019-04-25T09:23:34.431Z,1.00
2019-04-25T09:26:04.004Z,1.00
2019-04-25T09:28:34.737Z,1.00
2019-04-25T09:31:03.971Z,1.00
2019-04-25T09:33:34.148Z,1.00
2019-04-25T09:36:02.732Z,1.00
2019-04-25T09:38:31.186Z,1.00
2019-04-25T09:40:59.656Z,1.00
2019-04-25T09:43:28.152Z,1.00
2019-04-25T09:46:00.951Z,1.00
2019-04-25T09:48:46.836Z,1.00
2019-04-25T09:51:23.614Z,1.00
2019-04-25T09:53:54.173Z,1.00
2019-04-25T09:56:30.070Z,1.00
2019-04-25T09:59:03.735Z,1.00
2019-04-25T10:01:33.761Z,1.00
2019-04-25T10:04:02.413Z,1.00
2019-04-25T10:06:30.913Z,1.00
2019-04-25T10:08:59.412Z,1.00
2019-04-25T10:11:28.388Z,1.00
2019-04-25T10:14:05.736Z,1.00
2019-04-25T10:16:35.050Z,1.00
2019-04-25T10:19:03.687Z,1.00
2019-04-25T10:21:32.160Z,1.00
2019-04-25T10:24:00.644Z,1.00
2019-04-25T10:26:29.845Z,1.00
2019-04-25T10:28:58.335Z,1.00
2019-04-25T10:31:26.784Z,1.00
2019-04-25T10:33:55.338Z,1.00
2019-04-25T10:36:24.691Z,1.00
2019-04-25T10:39:06.715Z,1.00
2019-04-25T10:41:24.468Z,1.00
2019-04-25T10:43:54.631Z,1.00
2019-04-25T10:46:24.414Z,1.00
2019-04-25T10:48:55.945Z,1.00
2019-04-25T10:51:23.980Z,1.00
2019-04-25T10:53:53.861Z,1.00
2019-04-25T10:56:24.338Z,1.00
2019-04-25T10:58:54.784Z,1.00
2019-04-25T11:01:24.407Z,1.00
2019-04-25T11:04:10.971Z,1.00
2019-04-25T11:06:39.509Z,1.00
2019-04-25T11:09:13.771Z,1.00
2019-04-25T11:11:43.135Z,1.00
2019-04-25T11:14:13.430Z,1.00
2019-04-25T11:16:42.720Z,1.00
2019-04-25T11:19:13.589Z,1.00
2019-04-25T11:21:44.285Z,1.00
2019-04-25T11:24:14.213Z,1.00
2019-04-25T11:26:44.685Z,1.00
2019-04-25T11:29:13.300Z,1.00
2019-04-25T11:31:47.006Z,1.00
2019-04-25T11:34:16.814Z,1.00
2019-04-25T11:36:45.728Z,1.00
2019-04-25T11:39:28.452Z,1.00
2019-04-25T11:41:57.116Z,1.00
2019-04-25T11:44:25.597Z,1.00
2019-04-25T11:46:54.084Z,1.00
2019-04-25T11:49:23.830Z,1.00
2019-04-25T11:51:52.487Z,1.00
2019-04-25T11:54:20.965Z,1.00
2019-04-25T11:56:49.449Z,1.00
2019-04-25T11:59:18.171Z,1.00
2019-04-25T12:01:47.651Z,1.00
2019-04-25T12:04:16.365Z,1.00
2019-04-25T12:06:46.045Z,1.00
2019-04-25T12:09:15.211Z,1.00
2019-04-25T12:11:46.510Z,1.00
2019-04-25T12:14:14.913Z,1.00
2019-04-25T12:16:46.089Z,1.00
2019-04-25T12:19:14.002Z,1.00
2019-04-25T12:21:42.579Z,1.00
2019-04-25T12:24:11.246Z,1.00
2019-04-25T12:26:39.720Z,1.00
2019-04-25T12:29:08.223Z,1.00
2019-04-25T12:31:36.801Z,1.00
2019-04-25T12:34:05.402Z,1.00
2019-04-25T12:36:34.149Z,1.00
2019-04-25T12:39:03.393Z,1.00
2019-04-25T12:41:32.231Z,1.00
2019-04-25T12:44:08.853Z,1.00
2019-04-25T12:46:39.084Z,1.00
2019-04-25T12:49:07.536Z,1.00
2019-04-25T12:51:36.025Z,1.00
2019-04-25T12:54:04.500Z,1.00
2019-04-25T12:56:34.104Z,1.00
2019-04-25T12:59:03.017Z,1.00
2019-04-25T13:01:33.270Z,1.00
2019-04-25T13:04:01.876Z,1.00
2019-04-25T13:06:30.386Z,1.00
2019-04-25T13:08:59.498Z,1.00
2019-04-25T13:11:27.997Z,1.00
2019-04-25T13:13:56.477Z,1.00
2019-04-25T13:16:25.134Z,1.00
2019-04-25T13:18:53.607Z,1.00
2019-04-25T13:21:23.437Z,1.00
2019-04-25T13:23:52.070Z,1.00
2019-04-25T13:26:24.646Z,1.00
2019-04-25T13:28:56.689Z,1.00
2019-04-25T13:31:29.510Z,1.00
2019-04-25T13:34:08.124Z,1.00
2019-04-25T13:36:36.669Z,1.00
2019-04-25T13:39:08.953Z,1.00
2019-04-25T13:41:37.485Z,1.00
2019-04-25T13:44:06.034Z,1.00
2019-04-25T13:46:34.609Z,1.00
2019-04-25T13:49:04.248Z,1.00
2019-04-25T13:51:33.255Z,1.00
2019-04-25T13:54:01.888Z,1.00
2019-04-25T13:56:30.687Z,1.00
2019-04-25T13:58:59.283Z,1.00
2019-04-25T14:01:27.854Z,1.00
2019-04-25T14:03:56.393Z,1.00
2019-04-25T14:06:24.875Z,1.00
2019-04-25T14:08:53.532Z,1.00
2019-04-25T14:11:23.952Z,1.00
2019-04-25T14:13:52.739Z,1.00
2019-04-25T14:16:37.965Z,1.00
2019-04-25T14:19:16.861Z,1.00
2019-04-25T14:21:45.576Z,1.00
2019-04-25T14:24:20.419Z,1.00
2019-04-25T14:26:44.224Z,1.00
2019-04-25T14:29:14.114Z,1.00
2019-04-25T14:31:47.947Z,1.00
2019-04-25T14:34:13.284Z,1.00
2019-04-25T14:36:41.893Z,1.00
2019-04-25T14:39:12.102Z,1.00
2019-04-25T14:41:40.585Z,1.00
2019-04-25T14:44:09.061Z,1.00
2019-04-25T14:46:37.826Z,1.00
2019-04-25T14:49:06.395Z,1.00
2019-04-25T14:51:34.927Z,99.90
2019-04-25T14:54:05.190Z,99.90
2019-04-25T14:56:38.300Z,99.90
2019-04-25T14:59:06.840Z,99.90
2019-04-25T15:01:44.419Z,99.90
2019-04-25T15:04:05.633Z,99.90
2019-04-25T15:06:34.188Z,99.90
2019-04-25T15:09:02.710Z,99.90
2019-04-25T15:11:31.511Z,99.90
2019-04-25T15:14:00.090Z,99.90
2019-04-25T15:16:29.061Z,99.90
2019-04-25T15:18:57.609Z,99.90
2019-04-25T15:21:26.251Z,99.90
2019-04-25T15:24:00.271Z,99.90
2019-04-25T15:26:25.329Z,99.90
2019-04-25T15:28:53.864Z,99.90
2019-04-25T15:31:22.337Z,99.90
2019-04-25T15:33:50.809Z,99.90
2019-04-25T15:36:20.970Z,99.90
2019-04-25T15:39:00.258Z,99.90
2019-04-25T15:41:30.603Z,99.90
2019-04-25T15:44:17.035Z,99.90
2019-04-25T15:46:47.181Z,99.90
2019-04-25T15:49:15.819Z,99.90
2019-04-25T15:51:44.328Z,99.90
2019-04-25T15:54:12.792Z,99.90
2019-04-25T15:56:41.537Z,99.90
2019-04-25T15:59:10.109Z,99.90
2019-04-25T16:01:38.595Z,99.90
2019-04-25T16:04:07.070Z,99.90
2019-04-25T16:06:36.332Z,99.90
2019-04-25T16:09:06.357Z,99.90
2019-04-25T16:11:35.131Z,99.90
2019-04-25T16:14:04.061Z,99.90
2019-04-25T16:16:33.249Z,99.90
2019-04-25T16:19:01.839Z,99.90
2019-04-25T16:21:30.992Z,99.90
2019-04-25T16:23:59.994Z,99.90
2019-04-25T16:26:29.453Z,99.90
2019-04-25T16:28:58.304Z,99.90
2019-04-25T16:31:28.072Z,99.90
2019-04-25T16:33:56.979Z,99.90
2019-04-25T16:36:25.479Z,99.90
2019-04-25T16:38:53.920Z,99.90
2019-04-25T16:41:23.589Z,99.90
2019-04-25T16:43:53.750Z,99.90
2019-04-25T16:46:23.068Z,99.90
2019-04-25T16:48:51.567Z,99.90
2019-04-25T16:51:20.198Z,99.90
2019-04-25T16:53:48.670Z,99.90
2019-04-25T16:56:17.132Z,99.90
2019-04-25T16:58:47.317Z,99.90
2019-04-25T17:01:16.077Z,99.90
2019-04-25T17:03:44.763Z,99.90
2019-04-25T17:06:13.392Z,99.90
2019-04-25T17:08:41.868Z,99.90
2019-04-25T17:11:10.484Z,99.90
2019-04-25T17:13:40.580Z,99.90
2019-04-25T17:16:26.833Z,99.90
2019-04-25T17:18:56.966Z,99.90
2019-04-25T17:21:25.644Z,99.90
2019-04-25T17:23:54.134Z,99.90
2019-04-25T17:26:22.964Z,99.90
2019-04-25T17:28:53.112Z,99.90
2019-04-25T17:31:28.888Z,99.90
2019-04-25T17:34:04.929Z,99.90
2019-04-25T17:36:36.052Z,99.90
2019-04-25T17:39:10.931Z,99.90
2019-04-25T17:41:40.330Z,99.90
2019-04-25T17:44:08.972Z,99.90
2019-04-25T17:46:37.436Z,99.90
2019-04-25T17:49:05.918Z,99.90
2019-04-25T17:51:34.495Z,99.90
2019-04-25T17:54:03.389Z,99.90
2019-04-25T17:56:32.143Z,99.90
2019-04-25T17:59:01.599Z,99.90
2019-04-25T18:01:30.179Z,99.90
2019-04-25T18:03:58.628Z,99.90
2019-04-25T18:06:27.109Z,99.90
2019-04-25T18:08:55.618Z,99.90
2019-04-25T18:11:24.139Z,99.90
2019-04-25T18:13:52.651Z,99.90
2019-04-25T18:16:22.853Z,99.90
2019-04-25T18:19:09.016Z,99.90
2019-04-25T18:21:38.515Z,99.90
2019-04-25T18:24:14.496Z,99.90
2019-04-25T18:26:53.708Z,99.90
2019-04-25T18:29:23.075Z,99.90
2019-04-25T18:31:51.591Z,99.90
2019-04-25T18:34:24.467Z,99.90
2019-04-25T18:36:54.548Z,99.90
2019-04-25T18:39:30.365Z,99.90
2019-04-25T18:42:16.534Z,99.90
2019-04-25T18:44:46.204Z,99.90
2019-04-25T18:47:14.736Z,99.90
2019-04-25T18:49:44.878Z,99.90
2019-04-25T18:52:15.025Z,99.90
2019-04-25T18:54:50.635Z,99.90
2019-04-25T18:57:20.842Z,99.90
2019-04-25T18:59:56.978Z,99.90
2019-04-25T19:02:39.795Z,99.90
2019-04-25T19:05:26.280Z,99.90
2019-04-25T19:07:54.778Z,99.90
2019-04-25T19:10:23.756Z,99.90
2019-04-25T19:12:52.223Z,99.90
2019-04-25T19:15:20.982Z,99.90
2019-04-25T19:17:49.513Z,99.90
2019-04-25T19:20:18.085Z,99.90
2019-04-25T19:22:46.585Z,99.90
2019-04-25T19:25:15.135Z,99.90
2019-04-25T19:27:44.102Z,99.90
2019-04-25T19:30:14.472Z,99.90
2019-04-25T19:32:43.036Z,99.90
2019-04-25T19:35:11.663Z,99.90
2019-04-25T19:37:40.554Z,99.90
2019-04-25T19:40:30.210Z,99.90
2019-04-25T19:43:02.318Z,99.90
2019-04-25T19:45:33.244Z,99.90
2019-04-25T19:48:01.157Z,99.90
2019-04-25T19:50:29.677Z,99.90
2019-04-25T19:52:58.410Z,99.90
2019-04-25T19:55:27.162Z,99.90
2019-04-25T19:57:55.655Z,99.90
2019-04-25T20:00:24.225Z,99.90
2019-04-25T20:03:00.349Z,99.90
2019-04-25T20:05:36.833Z,99.90
2019-04-25T20:08:18.941Z,99.90
2019-04-25T20:10:49.116Z,99.90
2019-04-25T20:13:17.674Z,99.90
2019-04-25T20:15:47.540Z,99.90
2019-04-25T20:18:16.130Z,99.90
2019-04-25T20:20:45.709Z,99.90
2019-04-25T20:23:14.511Z,99.90
2019-04-25T20:25:43.746Z,99.90
2019-04-25T20:28:13.357Z,99.90
2019-04-25T20:30:41.930Z,99.90
2019-04-25T20:33:10.430Z,99.90
2019-04-25T20:35:39.027Z,99.90
2019-04-25T20:38:07.605Z,99.90
2019-04-25T20:40:36.420Z,99.90
2019-04-25T20:43:05.011Z,99.90
2019-04-25T20:45:33.581Z,99.90
2019-04-25T20:48:02.123Z,99.90
2019-04-25T20:50:30.638Z,99.90
2019-04-25T20:52:59.489Z,99.90
2019-04-25T20:55:27.945Z,99.90
2019-04-25T20:57:56.495Z,99.90
2019-04-25T21:00:40.723Z,99.90
2019-04-25T21:03:09.452Z,99.90
2019-04-25T21:05:38.087Z,99.90
2019-04-25T21:08:06.842Z,99.90
2019-04-25T21:10:35.338Z,99.90
2019-04-25T21:13:05.477Z,99.90
2019-04-25T21:15:44.352Z,99.90
2019-04-25T21:18:29.531Z,99.90
2019-04-25T21:20:59.113Z,99.90
2019-04-25T21:23:27.729Z,99.90
2019-04-25T21:25:56.944Z,99.90
2019-04-25T21:28:25.499Z,99.90
2019-04-25T21:30:54.794Z,99.90
2019-04-25T21:33:23.388Z,99.90
2019-04-25T21:35:53.269Z,99.90
2019-04-25T21:38:22.261Z,99.90
2019-04-25T21:40:53.904Z,99.90
2019-04-25T21:43:24.643Z,99.90
2019-04-25T21:45:54.245Z,99.90
2019-04-25T21:48:23.103Z,99.90
2019-04-25T21:50:53.532Z,99.90
2019-04-25T21:53:22.432Z,99.90
2019-04-25T21:55:51.197Z,99.90
2019-04-25T21:58:19.979Z,99.90
2019-04-25T22:00:52.425Z,99.90
2019-04-25T22:03:23.818Z,99.90
2019-04-25T22:05:52.487Z,99.90
2019-04-25T22:08:21.045Z,99.90
2019-04-25T22:10:49.525Z,99.90
2019-04-25T22:13:18.398Z,99.90
2019-04-25T22:15:47.615Z,99.90
2019-04-25T22:18:16.429Z,99.90
2019-04-25T22:20:45.052Z,99.90
2019-04-25T22:23:13.874Z,99.90
2019-04-25T22:25:42.660Z,99.90
2019-04-25T22:28:11.506Z,99.90
2019-04-25T22:30:41.320Z,99.90
2019-04-25T22:33:14.376Z,99.90
2019-04-25T22:35:44.588Z,99.90
2019-04-25T22:38:15.854Z,99.90
2019-04-25T22:40:47.349Z,99.90
2019-04-25T22:43:16.633Z,99.90
2019-04-25T22:45:45.433Z,99.90
2019-04-25T22:48:15.698Z,99.90
2019-04-25T22:50:44.560Z,99.90
2019-04-25T22:53:21.831Z,99.90
2019-04-25T22:55:43.451Z,99.90
2019-04-25T22:58:12.032Z,99.90
2019-04-25T23:00:40.589Z,99.90
2019-04-25T23:03:12.549Z,99.90
2019-04-25T23:05:42.800Z,1.00
2019-04-25T23:08:14.313Z,99.90
2019-04-25T23:10:47.026Z,99.90
2019-04-25T23:13:15.769Z,99.90
2019-04-25T23:15:44.274Z,99.90
2019-04-25T23:18:13.423Z,99.90
2019-04-25T23:20:42.058Z,99.90
2019-04-25T23:23:11.720Z,99.90
2019-04-25T23:25:58.075Z,99.90
2019-04-25T23:28:28.628Z,99.90
2019-04-25T23:31:10.821Z,99.90
2019-04-25T23:33:39.794Z,99.90
2019-04-25T23:36:09.082Z,99.90
2019-04-25T23:38:39.170Z,99.90
2019-04-25T23:41:09.368Z,99.90
2019-04-25T23:43:38.025Z,99.90
2019-04-25T23:46:07.441Z,99.90
2019-04-25T23:48:36.952Z,99.90
2019-04-25T23:51:06.361Z,99.90
2019-04-25T23:53:35.245Z,99.90
2019-04-25T23:56:04.092Z,99.90
2019-04-25T23:58:34.256Z,99.90
